Time;durP1;ratioP1;P1;durP2;ratioP2;P2;SDS_P1;SDS_P2;PMS_P1;PMS_P2;Temp;Humidity;BMP_temperature;BMP_pressure;BME280_temperature;BME280_humidity;BME280_pressure;Samples;Min_cycle;Max_cycle;Signal;HPM_P1;HPM_P2
2023/12/04 00:01:26;;;;;;;22.60;12.55;;;13.50;2201.60;;;;;;5070873;28;20416;-69
2023/12/04 00:03:52;;;;;;;22.88;13.45;;;13.50;2201.60;;;;;;5070554;28;20098;-71
2023/12/04 00:06:19;;;;;;;30.00;15.43;;;13.50;2201.60;;;;;;5070730;28;20429;-70
2023/12/04 00:08:44;;;;;;;20.67;10.70;;;13.50;2201.60;;;;;;5070131;28;20031;-70
2023/12/04 00:11:10;;;;;;;84.53;65.55;;;13.40;2201.60;;;;;;5069949;28;20037;-62
2023/12/04 00:13:36;;;;;;;21.50;11.27;;;13.50;2201.60;;;;;;5070503;28;20384;-67
2023/12/04 00:16:02;;;;;;;16.15;9.40;;;13.50;2201.60;;;;;;5070063;28;20043;-68
2023/12/04 00:18:28;;;;;;;18.75;11.70;;;13.50;2201.60;;;;;;5070505;28;20021;-65
2023/12/04 00:20:53;;;;;;;20.02;12.05;;;13.60;2201.60;;;;;;5069910;28;20024;-69
2023/12/04 00:23:19;;;;;;;16.33;9.05;;;13.50;2201.60;;;;;;5070181;28;20604;-71
2023/12/04 00:25:45;;;;;;;14.43;7.75;;;13.40;2201.60;;;;;;5069711;28;20020;-62
2023/12/04 00:28:10;;;;;;;13.05;8.07;;;13.40;2201.60;;;;;;5070106;28;20024;-71
2023/12/04 00:30:36;;;;;;;21.20;10.27;;;13.30;2201.60;;;;;;5070107;28;20016;-74
2023/12/04 00:33:02;;;;;;;21.40;11.63;;;13.40;2201.60;;;;;;5070556;28;20029;-60
2023/12/04 00:35:28;;;;;;;30.95;16.27;;;13.50;2201.60;;;;;;5058836;28;20025;-75
2023/12/04 00:37:54;;;;;;;27.88;15.25;;;13.60;2201.60;;;;;;5066767;28;20063;-61
2023/12/04 00:40:20;;;;;;;27.65;15.75;;;13.60;2201.60;;;;;;5070524;28;20036;-71
2023/12/04 00:42:45;;;;;;;24.60;12.45;;;13.60;2201.60;;;;;;5069630;28;20036;-69
2023/12/04 00:45:11;;;;;;;26.00;13.98;;;13.60;2201.60;;;;;;5070533;28;20044;-60
2023/12/04 00:47:37;;;;;;;27.00;13.60;;;13.70;2201.60;;;;;;5069540;28;20138;-64
2023/12/04 00:50:03;;;;;;;26.50;12.70;;;38.40;2201.60;;;;;;5069924;28;20092;-59
2023/12/04 00:52:29;;;;;;;20.98;12.38;;;38.50;2201.60;;;;;;5069597;28;20030;-70
2023/12/04 00:54:54;;;;;;;21.85;10.88;;;38.50;2201.60;;;;;;5069875;28;20514;-59
2023/12/04 00:57:20;;;;;;;19.65;11.38;;;38.60;2201.60;;;;;;5069586;28;20505;-68
2023/12/04 00:59:46;;;;;;;37.78;11.75;;;38.40;2201.60;;;;;;5069538;28;20044;-60
2023/12/04 01:02:12;;;;;;;24.48;12.60;;;38.60;2201.60;;;;;;5069456;28;20028;-71
2023/12/04 01:04:41;;;;;;;25.60;12.98;;;38.70;2201.60;;;;;;5069886;28;20024;-58
2023/12/04 01:07:07;;;;;;;20.98;12.43;;;38.80;2201.60;;;;;;5069742;28;20101;-67
2023/12/04 01:09:35;;;;;;;21.38;13.23;;;38.90;2201.60;;;;;;5072702;28;20534;-67
2023/12/04 01:12:01;;;;;;;33.30;15.93;;;38.90;2201.60;;;;;;5062552;28;20063;-70
2023/12/04 01:14:27;;;;;;;28.65;16.45;;;39.00;2201.60;;;;;;5072242;28;20025;-65
2023/12/04 01:16:53;;;;;;;33.75;17.45;;;38.90;2201.60;;;;;;5071756;28;20631;-68
2023/12/04 01:19:18;;;;;;;18.10;10.60;;;38.90;2201.60;;;;;;5071704;28;20013;-70
2023/12/04 01:21:44;;;;;;;20.83;11.93;;;38.90;2201.60;;;;;;5068941;28;20032;-62
2023/12/04 01:24:10;;;;;;;13.48;7.78;;;38.80;2201.60;;;;;;5069461;28;20060;-61
2023/12/04 01:26:36;;;;;;;12.15;8.32;;;38.80;2201.60;;;;;;5069065;28;20016;-60
2023/12/04 01:29:02;;;;;;;15.52;9.65;;;38.70;2201.60;;;;;;5069914;28;20035;-71
2023/12/04 01:31:28;;;;;;;15.15;7.18;;;38.70;2201.60;;;;;;5068997;28;20103;-61
2023/12/04 01:33:53;;;;;;;13.73;7.88;;;38.60;2201.60;;;;;;5069201;28;20029;-60
2023/12/04 01:36:19;;;;;;;17.60;10.18;;;38.70;2201.60;;;;;;5069064;28;20024;-67
2023/12/04 01:38:45;;;;;;;19.15;10.93;;;38.80;2201.60;;;;;;5068847;28;20032;-71
2023/12/04 01:41:11;;;;;;;24.33;11.70;;;38.80;2201.60;;;;;;5068334;28;20029;-68
2023/12/04 01:43:36;;;;;;;19.05;12.90;;;38.80;2201.60;;;;;;5063242;28;20044;-63
2023/12/04 01:46:03;;;;;;;22.38;13.68;;;38.90;2201.60;;;;;;5069095;28;20029;-72
2023/12/04 01:48:29;;;;;;;19.70;11.38;;;38.80;2201.60;;;;;;5069233;28;20078;-71
2023/12/04 01:50:57;;;;;;;17.92;9.82;;;38.90;2201.60;;;;;;5068881;28;20409;-70
2023/12/04 01:53:23;;;;;;;16.77;10.65;;;39.00;2201.60;;;;;;5069063;28;20028;-68
2023/12/04 01:55:50;;;;;;;18.88;9.77;;;39.10;2201.60;;;;;;5068849;28;20035;-59
2023/12/04 01:58:16;;;;;;;20.42;11.02;;;39.20;2201.60;;;;;;5069568;28;20025;-72
2023/12/04 02:00:42;;;;;;;20.23;11.88;;;39.10;2201.60;;;;;;5069042;28;20069;-71
2023/12/04 02:03:09;;;;;;;15.48;9.60;;;39.10;2201.60;;;;;;5069142;28;20591;-72
2023/12/04 02:05:36;;;;;;;14.90;8.88;;;39.00;2201.60;;;;;;5068642;28;20025;-58
2023/12/04 02:08:03;;;;;;;19.02;11.13;;;39.00;2201.60;;;;;;5069513;28;20032;-70
2023/12/04 02:10:29;;;;;;;12.15;7.85;;;38.90;2201.60;;;;;;5069622;28;20631;-59
2023/12/04 02:12:55;;;;;;;15.63;7.57;;;38.80;2201.60;;;;;;5062029;28;20061;-72
2023/12/04 02:15:21;;;;;;;12.82;7.65;;;38.70;2201.60;;;;;;5057643;28;20029;-67
2023/12/04 02:17:47;;;;;;;18.23;10.43;;;38.70;2201.60;;;;;;5068939;28;20086;-61
2023/12/04 02:20:14;;;;;;;16.40;9.10;;;39.00;2201.60;;;;;;5073018;28;20021;-59
2023/12/04 02:22:40;;;;;;;15.52;9.23;;;39.20;2201.60;;;;;;5075509;28;20044;-65
2023/12/04 02:25:08;;;;;;;14.82;10.02;;;39.30;2201.60;;;;;;5073971;28;20024;-59
2023/12/04 02:28:06;;;;;;;18.02;10.52;;;39.30;2201.60;;;;;;5073258;28;20479;-69
2023/12/04 02:30:36;;;;;;;17.90;10.50;;;39.20;2201.60;;;;;;4991037;28;20121;-73
2023/12/04 02:33:04;;;;;;;14.13;8.65;;;39.10;2201.60;;;;;;4990985;28;20052;-59
2023/12/04 02:35:33;;;;;;;19.13;10.13;;;39.10;2201.60;;;;;;4990683;28;20452;-68
2023/12/04 02:38:01;;;;;;;16.13;10.45;;;39.10;2201.60;;;;;;4991073;28;20093;-59
2023/12/04 02:40:27;;;;;;;19.30;11.68;;;39.10;2201.60;;;;;;4990766;28;20030;-70
2023/12/04 02:42:53;;;;;;;17.13;9.45;;;39.10;2201.60;;;;;;4990396;28;20112;-61
2023/12/04 02:45:19;;;;;;;19.05;10.13;;;39.00;2201.60;;;;;;4990712;28;20027;-64
2023/12/04 02:47:44;;;;;;;20.35;12.00;;;39.00;2201.60;;;;;;5003032;28;20049;-65
2023/12/04 02:50:10;;;;;;;18.20;9.35;;;39.20;2201.60;;;;;;4990236;28;20034;-58
2023/12/04 02:52:36;;;;;;;13.23;8.50;;;39.30;2201.60;;;;;;4990440;28;20022;-60
2023/12/04 02:55:02;;;;;;;19.58;8.88;;;39.30;2201.60;;;;;;4990819;28;20100;-62
2023/12/04 02:57:27;;;;;;;16.88;8.50;;;39.20;2201.60;;;;;;4990352;28;20100;-60
2023/12/04 02:59:53;;;;;;;14.73;8.23;;;39.20;2201.60;;;;;;4990324;28;20031;-59
2023/12/04 03:02:19;;;;;;;16.17;8.38;;;39.20;2201.60;;;;;;4990226;28;20049;-69
2023/12/04 03:04:45;;;;;;;16.42;8.70;;;39.30;2201.60;;;;;;4990236;28;20028;-69
2023/12/04 03:07:11;;;;;;;19.58;10.23;;;39.30;2201.60;;;;;;5019989;28;20033;-65
2023/12/04 03:09:37;;;;;;;14.82;8.30;;;39.20;2201.60;;;;;;5071729;28;20075;-60
2023/12/04 03:12:03;;;;;;;16.20;7.93;;;39.20;2201.60;;;;;;5071548;28;20055;-58
2023/12/04 03:14:29;;;;;;;14.20;9.63;;;39.10;2201.60;;;;;;5071805;28;20112;-60
2023/12/04 03:16:55;;;;;;;16.67;8.55;;;39.10;2201.60;;;;;;5071587;28;20044;-70
2023/12/04 03:19:20;;;;;;;17.67;8.85;;;39.10;2201.60;;;;;;5071689;28;20031;-70
2023/12/04 03:21:46;;;;;;;17.38;8.73;;;39.00;2201.60;;;;;;5071415;28;21500;-70
2023/12/04 03:24:12;;;;;;;17.75;10.25;;;39.10;2201.60;;;;;;5071853;28;20055;-60
2023/12/04 03:26:37;;;;;;;21.25;11.13;;;39.20;2201.60;;;;;;5065739;28;20490;-59
2023/12/04 03:29:03;;;;;;;17.58;10.25;;;39.20;2201.60;;;;;;5070698;28;20037;-59
2023/12/04 03:31:31;;;;;;;18.45;11.38;;;39.20;2201.60;;;;;;5071081;28;20052;-65
2023/12/04 03:33:57;;;;;;;23.08;12.68;;;39.10;2201.60;;;;;;5071444;28;20078;-62
2023/12/04 03:36:22;;;;;;;19.95;12.52;;;39.20;2201.60;;;;;;5071370;28;20429;-70
2023/12/04 03:38:48;;;;;;;18.92;10.05;;;39.30;2201.60;;;;;;5071843;28;20029;-59
2023/12/04 03:41:15;;;;;;;21.83;13.77;;;39.30;2201.60;;;;;;5070270;28;21324;-65
2023/12/04 03:43:41;;;;;;;17.40;10.95;;;39.20;2201.60;;;;;;5071475;28;20051;-71
2023/12/04 03:46:07;;;;;;;25.40;15.23;;;39.30;2201.60;;;;;;5071021;28;20021;-63
2023/12/04 03:48:32;;;;;;;25.70;15.52;;;39.10;2201.60;;;;;;5071273;28;20114;-72
2023/12/04 03:50:59;;;;;;;17.63;10.63;;;39.30;2201.60;;;;;;5070845;28;20017;-71
2023/12/04 03:53:25;;;;;;;17.52;10.43;;;39.30;2201.60;;;;;;5071179;28;20038;-71
2023/12/04 03:55:51;;;;;;;19.15;10.65;;;39.30;2201.60;;;;;;5070832;28;20086;-71
2023/12/04 03:58:17;;;;;;;19.05;10.23;;;39.20;2201.60;;;;;;5071008;28;20111;-67
2023/12/04 04:00:43;;;;;;;16.23;9.98;;;39.30;2201.60;;;;;;5070287;28;20099;-60
2023/12/04 04:03:10;;;;;;;18.75;10.48;;;39.30;2201.60;;;;;;5064805;28;20090;-62
2023/12/04 04:05:35;;;;;;;19.08;9.63;;;64.10;2201.60;;;;;;5070499;28;20028;-73
2023/12/04 04:08:02;;;;;;;14.63;8.63;;;64.00;2201.60;;;;;;5071022;28;20032;-67
2023/12/04 04:10:28;;;;;;;15.95;10.10;;;64.00;2201.60;;;;;;5070500;28;20474;-70
2023/12/04 04:12:53;;;;;;;21.83;12.63;;;64.00;2201.60;;;;;;5070430;28;20060;-70
2023/12/04 04:15:19;;;;;;;22.65;12.63;;;64.00;2201.60;;;;;;5070461;28;20028;-72
2023/12/04 04:17:45;;;;;;;27.23;12.30;;;64.00;2201.60;;;;;;5070410;28;20027;-71
2023/12/04 04:20:12;;;;;;;21.50;10.15;;;64.00;2201.60;;;;;;5070220;28;20036;-70
2023/12/04 04:22:39;;;;;;;17.52;9.95;;;64.00;2201.60;;;;;;5070071;28;20033;-63
2023/12/04 04:25:08;;;;;;;21.33;10.77;;;64.00;2201.60;;;;;;5070455;28;20100;-69
2023/12/04 04:27:34;;;;;;;18.90;9.82;;;64.10;2201.60;;;;;;5070263;28;20025;-59
2023/12/04 04:30:00;;;;;;;18.08;10.60;;;64.00;2201.60;;;;;;5058588;28;20040;-72
2023/12/04 04:32:26;;;;;;;21.08;9.85;;;64.10;2201.60;;;;;;5069946;28;20067;-65
2023/12/04 04:34:52;;;;;;;15.05;9.00;;;64.00;2201.60;;;;;;5059330;28;20063;-71
2023/12/04 04:37:19;;;;;;;14.30;7.65;;;64.10;2201.60;;;;;;5070045;28;20383;-64
2023/12/04 04:39:44;;;;;;;11.45;7.45;;;64.10;2201.60;;;;;;5064324;28;20021;-60
2023/12/04 04:42:10;;;;;;;19.15;12.77;;;64.10;2201.60;;;;;;5069191;28;20047;-58
2023/12/04 04:44:36;;;;;;;12.38;7.95;;;64.00;2201.60;;;;;;5069536;28;20021;-64
2023/12/04 04:47:02;;;;;;;17.73;9.88;;;64.20;2201.60;;;;;;5070027;28;20070;-67
2023/12/04 04:49:27;;;;;;;16.13;10.50;;;64.10;2201.60;;;;;;5070203;28;20028;-60
2023/12/04 04:51:54;;;;;;;17.95;11.52;;;64.10;2201.60;;;;;;5069445;28;20129;-68
2023/12/04 04:54:19;;;;;;;22.05;10.73;;;64.20;2201.60;;;;;;5069643;28;20024;-71
2023/12/04 04:56:45;;;;;;;12.25;8.15;;;64.20;2201.60;;;;;;5070020;28;20031;-62
2023/12/04 04:59:11;;;;;;;14.32;8.77;;;64.30;2201.60;;;;;;5069745;28;20021;-65
2023/12/04 05:01:37;;;;;;;13.15;6.78;;;64.30;2201.60;;;;;;5069261;28;20027;-68
2023/12/04 05:04:03;;;;;;;11.35;7.18;;;64.30;2201.60;;;;;;5069181;28;20033;-60
2023/12/04 05:06:29;;;;;;;15.45;7.20;;;64.30;2201.60;;;;;;5069680;28;20027;-61
2023/12/04 05:08:55;;;;;;;13.63;6.65;;;64.40;2201.60;;;;;;5069412;28;20103;-60
2023/12/04 05:11:21;;;;;;;14.27;7.65;;;64.40;2201.60;;;;;;5069450;28;20478;-71
2023/12/04 05:13:47;;;;;;;16.77;11.50;;;64.30;2201.60;;;;;;5068351;28;20027;-67
2023/12/04 05:16:13;;;;;;;20.20;11.13;;;64.30;2201.60;;;;;;5062833;28;20029;-59
2023/12/04 05:18:39;;;;;;;21.55;11.18;;;64.30;2201.60;;;;;;5069390;28;20471;-70
2023/12/04 05:21:09;;;;;;;23.70;10.93;;;64.20;2201.60;;;;;;5069292;28;20024;-64
2023/12/04 05:23:35;;;;;;;19.95;12.68;;;64.30;2201.60;;;;;;5069232;28;20040;-70
2023/12/04 05:26:01;;;;;;;22.05;13.88;;;64.30;2201.60;;;;;;5069573;28;20038;-61
2023/12/04 05:28:27;;;;;;;29.98;14.68;;;64.30;2201.60;;;;;;5071217;28;20030;-71
2023/12/04 05:30:53;;;;;;;18.95;12.15;;;64.30;2201.60;;;;;;5075316;28;20025;-66
2023/12/04 05:33:18;;;;;;;24.35;12.98;;;64.50;2201.60;;;;;;5075522;28;20033;-69
2023/12/04 05:35:44;;;;;;;21.88;12.15;;;64.50;2201.60;;;;;;5072275;28;20355;-62
2023/12/04 05:38:10;;;;;;;21.42;11.95;;;64.40;2201.60;;;;;;5073882;28;20021;-69
2023/12/04 05:40:36;;;;;;;21.75;13.00;;;64.40;2201.60;;;;;;5071751;28;20037;-68
2023/12/04 05:43:02;;;;;;;21.95;12.18;;;64.40;2201.60;;;;;;5069209;28;20124;-70
2023/12/04 05:45:28;;;;;;;24.15;11.88;;;64.50;2201.60;;;;;;5069122;28;20052;-64
2023/12/04 05:47:54;;;;;;;18.45;10.68;;;64.40;2201.60;;;;;;5065713;28;20028;-59
2023/12/04 05:50:19;;;;;;;18.92;12.85;;;64.40;2201.60;;;;;;5069310;28;20441;-64
2023/12/04 05:52:45;;;;;;;18.77;11.95;;;64.50;2201.60;;;;;;5068583;28;20025;-69
2023/12/04 05:55:11;;;;;;;23.67;11.88;;;64.40;2201.60;;;;;;5069084;28;20095;-68
2023/12/04 05:57:39;;;;;;;19.52;11.77;;;64.50;2201.60;;;;;;5068880;28;20056;-64
2023/12/04 06:00:12;;;;;;;24.05;13.00;;;64.50;2201.60;;;;;;5069000;28;20032;-69
2023/12/04 06:02:38;;;;;;;20.50;10.73;;;64.60;2201.60;;;;;;5069216;28;20074;-61
2023/12/04 06:05:05;;;;;;;28.92;17.17;;;64.60;2201.60;;;;;;5068946;28;20119;-72
2023/12/04 06:07:31;;;;;;;12.30;7.80;;;64.50;2201.60;;;;;;5067440;28;20048;-69
2023/12/04 06:09:57;;;;;;;18.40;10.32;;;64.70;2201.60;;;;;;5068742;28;20020;-71
2023/12/04 06:12:22;;;;;;;21.63;12.93;;;64.80;2201.60;;;;;;5068605;28;20057;-59
2023/12/04 06:14:48;;;;;;;20.67;12.73;;;64.70;2201.60;;;;;;5068637;28;20056;-69
2023/12/04 06:17:14;;;;;;;22.95;12.35;;;64.50;2201.60;;;;;;5068611;28;20111;-71
2023/12/04 06:19:40;;;;;;;78.57;36.50;;;64.40;2201.60;;;;;;5068873;28;20036;-72
2023/12/04 06:22:06;;;;;;;37.25;19.80;;;64.40;2201.60;;;;;;5067080;28;20028;-69
2023/12/04 06:24:32;;;;;;;68.25;38.15;;;64.40;2201.60;;;;;;5068818;28;20455;-67
2023/12/04 06:26:58;;;;;;;28.38;16.20;;;64.30;2201.60;;;;;;5068804;28;20379;-58
2023/12/04 06:29:24;;;;;;;32.30;17.35;;;64.30;2201.60;;;;;;5068087;28;20079;-58
2023/12/04 06:31:51;;;;;;;53.42;27.17;;;64.20;2201.60;;;;;;5068181;28;20028;-68
2023/12/04 06:34:17;;;;;;;72.43;36.38;;;64.20;2201.60;;;;;;5068179;28;20020;-58
2023/12/04 06:36:43;;;;;;;55.60;33.53;;;64.20;2201.60;;;;;;5068787;28;20178;-60
2023/12/04 06:39:14;;;;;;;24.77;13.82;;;64.20;2201.60;;;;;;5068879;28;20481;-70
2023/12/04 06:41:41;;;;;;;19.80;12.18;;;64.20;2201.60;;;;;;5067191;28;20031;-67
2023/12/04 06:44:07;;;;;;;53.63;33.03;;;64.00;2201.60;;;;;;5068514;28;20039;-68
2023/12/04 06:46:37;;;;;;;68.68;39.28;;;64.00;2201.60;;;;;;5068488;28;20413;-58
2023/12/04 06:49:06;;;;;;;33.33;20.83;;;64.00;2201.60;;;;;;5068146;28;20120;-67
2023/12/04 06:51:32;;;;;;;33.45;20.55;;;39.30;2201.60;;;;;;5068552;28;20028;-64
2023/12/04 06:53:58;;;;;;;52.35;28.95;;;39.30;2201.60;;;;;;5068098;28;20028;-57
2023/12/04 06:56:24;;;;;;;34.70;21.42;;;39.30;2201.60;;;;;;5062562;28;20043;-58
2023/12/04 06:58:50;;;;;;;26.23;15.57;;;39.30;2201.60;;;;;;5068416;28;20052;-64
2023/12/04 07:01:15;;;;;;;22.70;14.35;;;39.20;2201.60;;;;;;5067929;28;20020;-58
2023/12/04 07:03:41;;;;;;;27.25;14.93;;;39.30;2201.60;;;;;;5068472;28;20028;-58
2023/12/04 07:06:07;;;;;;;19.80;11.43;;;39.20;2201.60;;;;;;5071099;28;20474;-69
2023/12/04 07:08:33;;;;;;;16.65;10.25;;;39.20;2201.60;;;;;;5071811;28;20029;-64
2023/12/04 07:10:59;;;;;;;19.15;11.50;;;39.10;2201.60;;;;;;5059774;28;20100;-58
2023/12/04 07:13:24;;;;;;;16.80;9.13;;;39.00;2201.60;;;;;;5071508;28;20128;-68
2023/12/04 07:15:51;;;;;;;17.45;11.45;;;38.90;2201.60;;;;;;5071669;28;20035;-70
2023/12/04 07:18:16;;;;;;;18.65;9.63;;;38.80;2201.60;;;;;;5071281;28;20081;-69
2023/12/04 07:20:42;;;;;;;18.35;10.13;;;38.70;2201.60;;;;;;5071899;28;20103;-58
2023/12/04 07:23:08;;;;;;;15.93;9.07;;;38.70;2201.60;;;;;;5071339;28;20490;-70
2023/12/04 07:25:34;;;;;;;18.38;9.23;;;38.70;2201.60;;;;;;5071570;28;20027;-68
2023/12/04 07:27:59;;;;;;;14.45;8.35;;;38.60;2201.60;;;;;;5070792;28;20035;-59
2023/12/04 07:30:26;;;;;;;16.35;9.73;;;38.60;2201.60;;;;;;5065948;28;20679;-58
2023/12/04 07:32:53;;;;;;;18.05;9.45;;;38.60;2201.60;;;;;;5071447;28;20379;-69
2023/12/04 07:35:19;;;;;;;14.88;9.75;;;38.50;2201.60;;;;;;5067220;28;20736;-70
2023/12/04 07:37:44;;;;;;;14.82;8.65;;;38.40;2201.60;;;;;;5061896;28;20025;-63
2023/12/04 07:40:11;;;;;;;17.05;10.10;;;13.70;2201.60;;;;;;5067664;28;20025;-62
2023/12/04 07:42:37;;;;;;;19.95;11.40;;;13.70;2201.60;;;;;;5064454;28;20116;-67
2023/12/04 07:45:03;;;;;;;29.15;16.63;;;13.60;2201.60;;;;;;5065698;28;20025;-59
2023/12/04 07:47:29;;;;;;;28.90;16.00;;;13.60;2201.60;;;;;;5066210;28;20113;-63
2023/12/04 07:49:55;;;;;;;20.27;12.40;;;13.60;2201.60;;;;;;5064515;28;20099;-66
2023/12/04 07:52:20;;;;;;;21.90;12.30;;;13.50;2201.60;;;;;;5064330;28;20059;-67
2023/12/04 07:54:46;;;;;;;24.77;13.95;;;13.60;2201.60;;;;;;5069155;28;20123;-67
2023/12/04 07:57:12;;;;;;;46.40;28.42;;;13.60;2201.60;;;;;;5064249;28;20037;-69
2023/12/04 07:59:38;;;;;;;54.33;34.33;;;13.70;2201.60;;;;;;5066903;28;20111;-68
2023/12/04 08:02:04;;;;;;;70.72;38.90;;;13.60;2201.60;;;;;;5068540;28;20435;-65
2023/12/04 08:04:29;;;;;;;69.95;39.88;;;13.50;2201.60;;;;;;5060044;28;20139;-66
2023/12/04 08:06:56;;;;;;;63.05;37.67;;;13.40;2201.60;;;;;;5064633;28;20032;-65
2023/12/04 08:09:22;;;;;;;85.60;49.58;;;13.30;2201.60;;;;;;5063839;28;20033;-67
2023/12/04 08:11:47;;;;;;;104.13;58.38;;;12.90;2201.60;;;;;;5064731;28;20125;-60
2023/12/04 08:14:13;;;;;;;76.97;46.42;;;25.70;2201.60;;;;;;5067110;28;20024;-60
2023/12/04 08:16:39;;;;;;;71.95;45.33;;;51.90;2227.20;;;;;;5064038;28;20044;-60
2023/12/04 08:19:04;;;;;;;81.45;49.75;;;77.30;2227.20;;;;;;5068249;28;20025;-55
2023/12/04 08:21:32;;;;;;;85.22;51.15;;;128.10;2252.80;;;;;;5058604;28;20051;-63
2023/12/04 08:23:58;;;;;;;83.50;51.45;;;128.00;2252.80;;;;;;5063776;28;20068;-55
2023/12/04 08:26:25;;;;;;;84.18;51.10;;;102.60;2227.20;;;;;;5055887;28;20057;-57
2023/12/04 08:28:51;;;;;;;92.88;55.20;;;77.30;2227.20;;;;;;5059975;28;20102;-56
2023/12/04 08:31:17;;;;;;;107.10;61.20;;;52.00;2227.20;;;;;;5056784;28;20028;-60
2023/12/04 08:33:43;;;;;;;103.57;63.85;;;51.80;2227.20;;;;;;5061350;28;20017;-59
2023/12/04 08:36:11;;;;;;;134.30;83.10;;;77.50;2227.20;;;;;;5058630;28;20400;-56
2023/12/04 08:38:40;;;;;;;136.55;96.22;;;103.30;2227.20;;;;;;5064289;28;20036;-56
2023/12/04 08:41:06;;;;;;;140.45;94.57;;;153.70;2252.80;;;;;;5061298;28;20024;-56
2023/12/04 08:43:31;;;;;;;140.90;97.80;;;179.40;2227.20;;;;;;5063491;28;20041;-56
2023/12/04 08:45:58;;;;;;;140.40;102.72;;;205.60;2048.00;;;;;;5062623;28;20536;-57
2023/12/04 08:48:24;;;;;;;148.88;102.40;;;205.30;2048.00;;;;;;5065197;28;20150;-64
2023/12/04 08:50:50;;;;;;;128.32;94.70;;;205.40;2022.40;;;;;;5066669;28;20489;-56
2023/12/04 08:53:15;;;;;;;137.02;94.25;;;230.70;1920.00;;;;;;5066743;28;20032;-67
2023/12/04 08:55:41;;;;;;;170.60;112.85;;;230.50;1945.60;;;;;;5065805;28;20032;-56
2023/12/04 08:58:07;;;;;;;195.30;127.63;;;230.80;1920.00;;;;;;5061117;28;20021;-58
2023/12/04 09:00:35;;;;;;;139.18;89.65;;;231.10;1843.20;;;;;;5065001;28;20051;-56
2023/12/04 09:03:01;;;;;;;142.73;90.43;;;230.60;1843.20;;;;;;5065308;28;20422;-57
2023/12/04 09:05:27;;;;;;;109.32;73.18;;;256.20;1792.00;;;;;;5062193;28;20374;-56
2023/12/04 09:07:53;;;;;;;92.40;53.05;;;256.20;1817.60;;;;;;5066623;28;20486;-57
2023/12/04 09:10:19;;;;;;;90.07;55.72;;;256.20;1792.00;;;;;;5059424;28;20124;-57
2023/12/04 09:12:45;;;;;;;112.68;70.47;;;256.30;1740.80;;;;;;5056849;28;20096;-56
2023/12/04 09:15:11;;;;;;;108.90;63.53;;;256.80;1689.60;;;;;;5061451;28;20116;-57
2023/12/04 09:17:37;;;;;;;67.63;39.55;;;256.80;1689.60;;;;;;5063742;28;20025;-56
2023/12/04 09:20:05;;;;;;;96.28;59.10;;;307.40;1664.00;;;;;;5065166;28;20040;-57
2023/12/04 09:22:31;;;;;;;47.03;31.55;;;307.90;1612.80;;;;;;5064225;28;20519;-56
2023/12/04 09:24:57;;;;;;;45.83;28.38;;;282.20;1638.40;;;;;;5056794;28;20024;-56
2023/12/04 09:27:23;;;;;;;48.17;30.00;;;256.40;1689.60;;;;;;5060255;28;20445;-57
2023/12/04 09:29:48;;;;;;;73.35;37.97;;;230.80;1766.40;;;;;;5061239;28;20125;-56
2023/12/04 09:32:14;;;;;;;77.70;39.72;;;205.50;1817.60;;;;;;5062294;28;20055;-56
2023/12/04 09:34:40;;;;;;;67.68;37.65;;;205.30;1843.20;;;;;;5068976;28;20075;-54
2023/12/04 09:37:07;;;;;;;58.65;34.95;;;154.50;1996.80;;;;;;5069441;28;20020;-56
2023/12/04 09:39:33;;;;;;;59.70;32.28;;;128.90;2073.60;;;;;;5069240;28;20029;-56
2023/12/04 09:41:59;;;;;;;69.05;39.00;;;128.40;2124.80;;;;;;5069827;28;20428;-55
2023/12/04 09:44:28;;;;;;;51.38;28.77;;;128.10;2150.40;;;;;;5069171;28;20115;-55
2023/12/04 09:46:54;;;;;;;39.28;25.35;;;102.60;2201.60;;;;;;5069233;28;20021;-55
2023/12/04 09:49:20;;;;;;;33.90;19.02;;;102.50;2227.20;;;;;;5069410;28;20035;-55
2023/12/04 09:51:47;;;;;;;29.35;18.58;;;77.70;2227.20;;;;;;5069072;28;20033;-54
2023/12/04 09:54:16;;;;;;;29.38;17.08;;;77.50;2227.20;;;;;;5069231;28;20453;-55
2023/12/04 09:56:43;;;;;;;22.85;14.07;;;77.50;2227.20;;;;;;5069833;28;20025;-55
2023/12/04 09:59:12;;;;;;;27.58;15.82;;;77.30;2227.20;;;;;;5069199;28;20039;-55
2023/12/04 10:01:40;;;;;;;41.60;23.98;;;77.40;2227.20;;;;;;5051441;28;20090;-55
2023/12/04 10:04:06;;;;;;;26.60;16.17;;;77.60;2227.20;;;;;;5062934;28;20033;-56
2023/12/04 10:06:33;;;;;;;45.63;27.13;;;102.40;2227.20;;;;;;5065122;28;20024;-55
2023/12/04 10:08:59;;;;;;;26.92;15.02;;;102.50;2227.20;;;;;;5069121;28;20029;-55
2023/12/04 10:11:26;;;;;;;40.17;21.52;;;102.40;2227.20;;;;;;5069164;28;20025;-55
2023/12/04 10:13:53;;;;;;;35.25;20.35;;;102.40;2227.20;;;;;;5069301;28;20093;-55
2023/12/04 10:16:36;;;;;;;37.15;22.95;;;102.60;2227.20;;;;;;5069437;28;20071;-55
2023/12/04 10:19:30;;;;;;;21.52;12.70;;;102.40;2227.20;;;;;;5069401;28;20032;-56
2023/12/04 10:22:00;;;;;;;21.35;13.40;;;77.50;2227.20;;;;;;5069024;28;20482;-56
2023/12/04 10:24:37;;;;;;;30.55;17.10;;;102.40;2227.20;;;;;;5068955;28;20036;-55
2023/12/04 10:27:09;;;;;;;31.15;20.20;;;77.40;2227.20;;;;;;5069313;28;20044;-56
2023/12/04 10:29:47;;;;;;;35.42;17.75;;;77.40;2227.20;;;;;;5068713;28;20040;-56
2023/12/04 10:32:13;;;;;;;35.22;20.17;;;77.70;2227.20;;;;;;5069156;28;20017;-57
2023/12/04 10:34:42;;;;;;;33.95;20.27;;;77.50;2227.20;;;;;;5069248;28;20074;-56
2023/12/04 10:37:09;;;;;;;25.23;14.13;;;77.70;2227.20;;;;;;5059685;28;20419;-67
2023/12/04 10:39:49;;;;;;;33.30;18.83;;;77.50;2227.20;;;;;;5065560;28;20036;-67
2023/12/04 10:42:29;;;;;;;50.20;24.92;;;77.70;2227.20;;;;;;5073043;28;20044;-56
2023/12/04 10:44:58;;;;;;;34.60;21.13;;;102.40;2227.20;;;;;;5072842;28;20024;-56
2023/12/04 10:47:25;;;;;;;35.97;20.83;;;102.60;2227.20;;;;;;5072740;28;20100;-56
2023/12/04 10:49:52;;;;;;;59.28;31.60;;;77.70;2227.20;;;;;;5059018;28;20025;-56
2023/12/04 10:52:21;;;;;;;50.42;25.42;;;102.40;2227.20;;;;;;5072738;28;20036;-57
2023/12/04 10:54:50;;;;;;;52.10;30.13;;;102.40;2227.20;;;;;;5072501;28;20558;-56
2023/12/04 10:57:28;;;;;;;39.78;25.38;;;102.50;2227.20;;;;;;5072147;28;20455;-55
2023/12/04 11:00:02;;;;;;;22.65;16.50;;;102.70;2201.60;;;;;;5071862;28;20033;-56
2023/12/04 11:02:33;;;;;;;18.45;10.88;;;102.90;2201.60;;;;;;5071871;28;20040;-55
2023/12/04 11:05:13;;;;;;;24.13;14.73;;;102.70;2176.00;;;;;;5072849;28;20356;-59
2023/12/04 11:07:44;;;;;;;25.90;17.38;;;102.60;2201.60;;;;;;5069850;28;20459;-56
2023/12/04 11:10:11;;;;;;;25.55;15.57;;;102.90;2201.60;;;;;;5062933;28;20056;-55
2023/12/04 11:12:44;;;;;;;37.05;19.98;;;102.80;2201.60;;;;;;5071879;28;20044;-57
2023/12/04 11:15:13;;;;;;;30.42;20.20;;;102.90;2176.00;;;;;;5071444;28;20056;-58
2023/12/04 11:17:43;;;;;;;24.73;15.75;;;102.90;2176.00;;;;;;5071990;28;20036;-55
2023/12/04 11:20:16;;;;;;;59.33;29.92;;;102.80;2201.60;;;;;;5071458;28;20039;-56
2023/12/04 11:22:45;;;;;;;62.20;31.52;;;102.80;2201.60;;;;;;5071692;28;20033;-58
2023/12/04 11:25:13;;;;;;;55.25;26.27;;;102.80;2201.60;;;;;;5071402;28;20031;-56
2023/12/04 11:27:40;;;;;;;30.80;17.77;;;102.90;2201.60;;;;;;5071488;28;20044;-56
2023/12/04 11:30:07;;;;;;;46.13;28.30;;;103.10;2201.60;;;;;;5071252;28;20025;-56
2023/12/04 11:32:46;;;;;;;43.78;24.70;;;102.90;2201.60;;;;;;5071736;28;20374;-56
2023/12/04 11:35:17;;;;;;;41.65;24.23;;;103.10;2201.60;;;;;;5071073;28;20032;-56
2023/12/04 11:37:44;;;;;;;41.83;21.77;;;102.80;2201.60;;;;;;5071021;28;20033;-56
2023/12/04 11:40:15;;;;;;;48.67;26.02;;;102.90;2201.60;;;;;;5071179;28;20470;-58
2023/12/04 11:42:41;;;;;;;29.98;17.52;;;103.10;2201.60;;;;;;5071103;28;20384;-56
2023/12/04 11:45:08;;;;;;;50.78;27.65;;;103.00;2201.60;;;;;;5063229;28;20032;-57
2023/12/04 11:47:56;;;;;;;46.83;26.05;;;102.90;2201.60;;;;;;5071180;28;20036;-64
2023/12/04 11:50:25;;;;;;;49.33;27.02;;;102.80;2201.60;;;;;;5070987;28;20024;-55
2023/12/04 11:52:51;;;;;;;38.90;22.55;;;103.10;2176.00;;;;;;5071042;28;20403;-56
2023/12/04 11:55:26;;;;;;;36.78;23.02;;;103.00;2176.00;;;;;;5070925;28;20079;-56
2023/12/04 11:57:54;;;;;;;27.60;18.00;;;103.10;2176.00;;;;;;5070402;28;20482;-55
2023/12/04 12:00:22;;;;;;;23.38;14.38;;;103.10;2176.00;;;;;;5070681;28;20024;-65
2023/12/04 12:02:54;;;;;;;27.38;15.25;;;103.20;2150.40;;;;;;5070756;28;20451;-59
2023/12/04 12:05:25;;;;;;;41.60;18.30;;;103.10;2150.40;;;;;;5070779;28;20107;-58